< < Back
Terminal Aerodrome Forecast


Current Version              Previous Versions:   1  2  3  4  5  6  7  8  9  

Terminal Aerodrome Forecast

476
FTUS42 KGSP 040857 AAA
TAFCLT
TAF AMD
KCLT 040857Z 0409/0506 24007KT P6SM BKN100 OVC150
     FM041200 25011G18KT P6SM VCSH BKN050
      TEMPO 0413/0417 4SM TSRA BKN040CB
     FM041700 24014G22KT P6SM BKN050 PROB30 0420/0424 4SM TSRA
      BKN040CB
     FM050000 25007KT P6SM BKN200
     FM050200 22004KT P6SM BKN250=



Latest METAR

976
SAUS70 KWBC 050400 RRB
MTRCLT
METAR KCLT 050352Z 21003KT 10SM SCT120 BKN250 23/19 A3007 RMK AO2 SLP174
T02330194


USA.gov is the U.S. government's official web portal to all federal, state and local government web resources and services.